sensor_id;sensor_type;location;lat;lon;timestamp;pressure;altitude;pressure_sealevel;temperature;humidity
62038;BME280;47991;42.974;12.082;2023-01-27T00:00:37;96978.73;;;1.74;75.62
62038;BME280;47991;42.974;12.082;2023-01-27T00:03:21;96972.94;;;1.80;75.38
62038;BME280;47991;42.974;12.082;2023-01-27T00:05:49;96970.83;;;1.84;75.43
62038;BME280;47991;42.974;12.082;2023-01-27T00:08:17;96972.70;;;1.90;74.98
62038;BME280;47991;42.974;12.082;2023-01-27T00:10:44;96968.51;;;1.92;74.86
62038;BME280;47991;42.974;12.082;2023-01-27T00:13:12;96972.14;;;1.96;74.65
62038;BME280;47991;42.974;12.082;2023-01-27T00:15:58;96972.13;;;1.96;74.77
62038;BME280;47991;42.974;12.082;2023-01-27T00:18:25;96971.09;;;1.96;74.80
62038;BME280;47991;42.974;12.082;2023-01-27T00:20:54;96968.47;;;1.95;74.96
62038;BME280;47991;42.974;12.082;2023-01-27T00:23:40;96969.35;;;1.95;74.79
62038;BME280;47991;42.974;12.082;2023-01-27T00:26:26;96964.83;;;1.94;74.81
62038;BME280;47991;42.974;12.082;2023-01-27T00:28:52;96965.52;;;1.94;74.67
62038;BME280;47991;42.974;12.082;2023-01-27T00:31:19;96965.69;;;1.98;74.68
62038;BME280;47991;42.974;12.082;2023-01-27T00:34:30;96963.59;;;1.96;74.62
62038;BME280;47991;42.974;12.082;2023-01-27T00:36:57;96967.43;;;1.95;74.33
62038;BME280;47991;42.974;12.082;2023-01-27T00:39:24;96961.84;;;1.97;74.48
62038;BME280;47991;42.974;12.082;2023-01-27T00:41:51;96960.48;;;1.93;74.10
62038;BME280;47991;42.974;12.082;2023-01-27T00:44:18;96955.61;;;1.92;73.64
62038;BME280;47991;42.974;12.082;2023-01-27T00:46:45;96953.35;;;1.91;73.87
62038;BME280;47991;42.974;12.082;2023-01-27T00:49:12;96952.84;;;1.89;73.73
62038;BME280;47991;42.974;12.082;2023-01-27T00:51:40;96951.29;;;1.86;73.75
62038;BME280;47991;42.974;12.082;2023-01-27T00:54:07;96955.31;;;1.84;73.68
62038;BME280;47991;42.974;12.082;2023-01-27T00:56:35;96955.16;;;1.81;73.62
62038;BME280;47991;42.974;12.082;2023-01-27T00:59:03;96957.09;;;1.79;73.45
62038;BME280;47991;42.974;12.082;2023-01-27T01:01:31;96955.54;;;1.78;73.70
62038;BME280;47991;42.974;12.082;2023-01-27T01:04:02;96954.15;;;1.76;73.45
62038;BME280;47991;42.974;12.082;2023-01-27T01:06:30;96953.98;;;1.74;73.45
62038;BME280;47991;42.974;12.082;2023-01-27T01:08:57;96955.23;;;1.69;73.08
62038;BME280;47991;42.974;12.082;2023-01-27T01:11:25;96957.35;;;1.66;72.83
62038;BME280;47991;42.974;12.082;2023-01-27T01:13:56;96956.65;;;1.66;73.18
62038;BME280;47991;42.974;12.082;2023-01-27T01:16:23;96960.14;;;1.66;72.79
62038;BME280;47991;42.974;12.082;2023-01-27T01:18:50;96957.90;;;1.61;72.70
62038;BME280;47991;42.974;12.082;2023-01-27T01:21:20;96958.79;;;1.60;72.60
62038;BME280;47991;42.974;12.082;2023-01-27T01:23:48;96956.36;;;1.56;72.57
62038;BME280;47991;42.974;12.082;2023-01-27T01:26:15;96957.60;;;1.53;72.55
62038;BME280;47991;42.974;12.082;2023-01-27T01:28:44;96956.26;;;1.45;72.42
62038;BME280;47991;42.974;12.082;2023-01-27T01:31:14;96952.98;;;1.39;72.50
62038;BME280;47991;42.974;12.082;2023-01-27T01:33:41;96950.74;;;1.33;72.62
62038;BME280;47991;42.974;12.082;2023-01-27T01:36:11;96950.58;;;1.28;72.67
62038;BME280;47991;42.974;12.082;2023-01-27T01:38:39;96955.48;;;1.25;72.74
62038;BME280;47991;42.974;12.082;2023-01-27T01:41:09;96953.40;;;1.24;72.90
62038;BME280;47991;42.974;12.082;2023-01-27T01:43:37;96951.14;;;1.24;73.02
62038;BME280;47991;42.974;12.082;2023-01-27T01:46:04;96949.55;;;1.26;73.14
62038;BME280;47991;42.974;12.082;2023-01-27T01:48:40;96945.91;;;1.24;72.70
62038;BME280;47991;42.974;12.082;2023-01-27T01:51:16;96946.97;;;1.21;72.49
62038;BME280;47991;42.974;12.082;2023-01-27T01:54:00;96943.16;;;1.15;72.59
62038;BME280;47991;42.974;12.082;2023-01-27T01:56:40;96945.12;;;1.08;72.43
62038;BME280;47991;42.974;12.082;2023-01-27T01:59:39;96946.36;;;1.04;72.50
62038;BME280;47991;42.974;12.082;2023-01-27T02:02:13;96949.85;;;0.98;72.46
62038;BME280;47991;42.974;12.082;2023-01-27T02:04:52;96944.46;;;0.96;72.65
62038;BME280;47991;42.974;12.082;2023-01-27T02:07:32;96944.99;;;0.94;72.91
62038;BME280;47991;42.974;12.082;2023-01-27T02:10:02;96942.73;;;0.94;72.96
62038;BME280;47991;42.974;12.082;2023-01-27T02:12:29;96941.85;;;0.97;73.11
62038;BME280;47991;42.974;12.082;2023-01-27T02:14:56;96942.53;;;1.01;73.11
62038;BME280;47991;42.974;12.082;2023-01-27T02:17:24;96940.77;;;1.05;72.57
62038;BME280;47991;42.974;12.082;2023-01-27T02:26:36;96935.79;;;0.91;72.10
62038;BME280;47991;42.974;12.082;2023-01-27T02:28:37;96934.75;;;0.89;72.08
62038;BME280;47991;42.974;12.082;2023-01-27T02:31:04;96933.04;;;0.81;71.93
62038;BME280;47991;42.974;12.082;2023-01-27T02:33:33;96933.05;;;0.77;72.21
62038;BME280;47991;42.974;12.082;2023-01-27T02:38:39;96933.94;;;0.67;72.35
62038;BME280;47991;42.974;12.082;2023-01-27T02:43:41;96931.33;;;0.71;72.65
62038;BME280;47991;42.974;12.082;2023-01-27T02:46:08;96932.02;;;0.74;72.87
62038;BME280;47991;42.974;12.082;2023-01-27T02:48:36;96934.78;;;0.82;72.91
62038;BME280;47991;42.974;12.082;2023-01-27T02:51:03;96927.62;;;0.87;72.77
62038;BME280;47991;42.974;12.082;2023-01-27T02:53:31;96924.31;;;0.87;72.60
62038;BME280;47991;42.974;12.082;2023-01-27T02:55:58;96922.58;;;0.86;72.10
62038;BME280;47991;42.974;12.082;2023-01-27T02:58:26;96921.04;;;0.82;72.06
62038;BME280;47991;42.974;12.082;2023-01-27T03:00:58;96921.21;;;0.81;71.75
62038;BME280;47991;42.974;12.082;2023-01-27T03:03:26;96915.12;;;0.78;71.81
62038;BME280;47991;42.974;12.082;2023-01-27T03:05:53;96914.61;;;0.76;71.74
62038;BME280;47991;42.974;12.082;2023-01-27T03:08:20;96913.23;;;0.72;71.58
62038;BME280;47991;42.974;12.082;2023-01-27T03:10:51;96909.26;;;0.66;71.55
62038;BME280;47991;42.974;12.082;2023-01-27T03:13:24;96904.73;;;0.63;71.65
62038;BME280;47991;42.974;12.082;2023-01-27T03:15:51;96910.15;;;0.55;71.63
62038;BME280;47991;42.974;12.082;2023-01-27T03:18:38;96903.89;;;0.50;71.99
62038;BME280;47991;42.974;12.082;2023-01-27T03:21:06;96904.26;;;0.47;71.97
62038;BME280;47991;42.974;12.082;2023-01-27T03:23:33;96907.91;;;0.43;72.04
62038;BME280;47991;42.974;12.082;2023-01-27T03:26:06;96902.52;;;0.42;71.99
62038;BME280;47991;42.974;12.082;2023-01-27T03:28:35;96902.35;;;0.42;71.99
62038;BME280;47991;42.974;12.082;2023-01-27T03:31:08;96901.85;;;0.33;71.98
62038;BME280;47991;42.974;12.082;2023-01-27T03:34:00;96900.14;;;0.27;72.06
62038;BME280;47991;42.974;12.082;2023-01-27T03:36:53;96901.36;;;0.22;72.37
62038;BME280;47991;42.974;12.082;2023-01-27T03:39:39;96896.66;;;0.22;72.14
62038;BME280;47991;42.974;12.082;2023-01-27T03:42:24;96899.27;;;0.23;72.26
62038;BME280;47991;42.974;12.082;2023-01-27T03:45:10;96903.95;;;0.27;72.25
62038;BME280;47991;42.974;12.082;2023-01-27T03:47:56;96904.64;;;0.29;72.42
62038;BME280;47991;42.974;12.082;2023-01-27T03:50:23;96903.59;;;0.32;72.59
62038;BME280;47991;42.974;12.082;2023-01-27T03:52:59;96901.83;;;0.37;72.23
62038;BME280;47991;42.974;12.082;2023-01-27T03:55:34;96901.31;;;0.41;72.11
62038;BME280;47991;42.974;12.082;2023-01-27T03:58:03;96903.58;;;0.40;72.02
62038;BME280;47991;42.974;12.082;2023-01-27T04:00:51;96897.15;;;0.41;71.81
62038;BME280;47991;42.974;12.082;2023-01-27T04:03:19;96897.15;;;0.41;71.80
62038;BME280;47991;42.974;12.082;2023-01-27T04:06:13;96897.84;;;0.41;71.80
62038;BME280;47991;42.974;12.082;2023-01-27T04:08:59;96900.27;;;0.40;71.76
62038;BME280;47991;42.974;12.082;2023-01-27T04:11:26;96905.50;;;0.35;71.86
62038;BME280;47991;42.974;12.082;2023-01-27T04:14:12;96898.39;;;0.28;72.15
62038;BME280;47991;42.974;12.082;2023-01-27T04:16:39;96901.35;;;0.24;71.96
62038;BME280;47991;42.974;12.082;2023-01-27T04:19:08;96903.61;;;0.17;72.27
62038;BME280;47991;42.974;12.082;2023-01-27T04:21:38;96903.45;;;0.16;72.33
62038;BME280;47991;42.974;12.082;2023-01-27T04:24:10;96900.66;;;0.13;72.49
62038;BME280;47991;42.974;12.082;2023-01-27T04:27:09;96899.80;;;0.15;72.78
62038;BME280;47991;42.974;12.082;2023-01-27T04:29:38;96904.85;;;0.15;73.07
62038;BME280;47991;42.974;12.082;2023-01-27T04:32:08;96903.62;;;0.15;73.04
62038;BME280;47991;42.974;12.082;2023-01-27T04:34:36;96905.36;;;0.10;72.81
62038;BME280;47991;42.974;12.082;2023-01-27T04:37:05;96905.36;;;0.06;73.05
62038;BME280;47991;42.974;12.082;2023-01-27T04:39:33;96903.64;;;0.02;72.93
62038;BME280;47991;42.974;12.082;2023-01-27T04:42:00;96902.77;;;0.02;72.80
62038;BME280;47991;42.974;12.082;2023-01-27T04:44:29;96902.77;;;0.03;72.87
62038;BME280;47991;42.974;12.082;2023-01-27T04:46:56;96900.86;;;0.04;72.66
62038;BME280;47991;42.974;12.082;2023-01-27T04:49:23;96900.52;;;0.08;72.22
62038;BME280;47991;42.974;12.082;2023-01-27T04:51:53;96905.37;;;0.14;72.22
62038;BME280;47991;42.974;12.082;2023-01-27T04:54:20;96906.74;;;0.18;72.27
62038;BME280;47991;42.974;12.082;2023-01-27T04:56:59;96908.48;;;0.24;72.32
62038;BME280;47991;42.974;12.082;2023-01-27T04:59:28;96909.16;;;0.28;71.95
62038;BME280;47991;42.974;12.082;2023-01-27T05:01:55;96909.34;;;0.28;71.36
62038;BME280;47991;42.974;12.082;2023-01-27T05:04:25;96909.52;;;0.31;71.23
62038;BME280;47991;42.974;12.082;2023-01-27T05:06:53;96910.54;;;0.35;71.27
62038;BME280;47991;42.974;12.082;2023-01-27T05:09:20;96911.76;;;0.35;70.86
62038;BME280;47991;42.974;12.082;2023-01-27T05:11:47;96912.80;;;0.35;70.74
62038;BME280;47991;42.974;12.082;2023-01-27T05:14:14;96917.85;;;0.34;70.28
62038;BME280;47991;42.974;12.082;2023-01-27T05:16:41;96918.02;;;0.35;70.30
62038;BME280;47991;42.974;12.082;2023-01-27T05:19:08;96915.23;;;0.37;70.57
62038;BME280;47991;42.974;12.082;2023-01-27T05:21:35;96916.10;;;0.39;70.96
62038;BME280;47991;42.974;12.082;2023-01-27T05:24:02;96915.58;;;0.42;70.89
62038;BME280;47991;42.974;12.082;2023-01-27T05:26:29;96915.23;;;0.42;70.72
62038;BME280;47991;42.974;12.082;2023-01-27T05:28:57;96915.75;;;0.40;70.18
62038;BME280;47991;42.974;12.082;2023-01-27T05:31:27;96916.45;;;0.40;70.38
62038;BME280;47991;42.974;12.082;2023-01-27T05:33:54;96912.27;;;0.40;70.27
62038;BME280;47991;42.974;12.082;2023-01-27T05:36:23;96918.02;;;0.36;70.36
62038;BME280;47991;42.974;12.082;2023-01-27T05:38:52;96919.23;;;0.32;70.25
62038;BME280;47991;42.974;12.082;2023-01-27T05:41:20;96921.51;;;0.31;70.22
62038;BME280;47991;42.974;12.082;2023-01-27T05:43:52;96929.50;;;0.34;70.57
62038;BME280;47991;42.974;12.082;2023-01-27T05:46:22;96924.80;;;0.34;70.53
62038;BME280;47991;42.974;12.082;2023-01-27T05:48:55;96923.94;;;0.33;70.63
62038;BME280;47991;42.974;12.082;2023-01-27T05:51:24;96923.77;;;0.34;70.88
62038;BME280;47991;42.974;12.082;2023-01-27T05:53:51;96928.45;;;0.36;70.48
62038;BME280;47991;42.974;12.082;2023-01-27T05:56:23;96930.20;;;0.34;70.35
62038;BME280;47991;42.974;12.082;2023-01-27T05:58:54;96930.36;;;0.35;70.30
62038;BME280;47991;42.974;12.082;2023-01-27T06:01:26;96927.76;;;0.35;70.04
62038;BME280;47991;42.974;12.082;2023-01-27T06:03:55;96931.40;;;0.35;69.95
62038;BME280;47991;42.974;12.082;2023-01-27T06:06:24;96935.91;;;0.37;70.09
62038;BME280;47991;42.974;12.082;2023-01-27T06:08:52;96931.56;;;0.40;70.21
62038;BME280;47991;42.974;12.082;2023-01-27T06:11:20;96932.95;;;0.46;70.54
62038;BME280;47991;42.974;12.082;2023-01-27T06:13:47;96933.81;;;0.50;70.47
62038;BME280;47991;42.974;12.082;2023-01-27T06:16:18;96932.93;;;0.54;70.52
62038;BME280;47991;42.974;12.082;2023-01-27T06:18:47;96933.61;;;0.57;69.94
62038;BME280;47991;42.974;12.082;2023-01-27T06:21:15;96932.92;;;0.58;69.76
62038;BME280;47991;42.974;12.082;2023-01-27T06:23:42;96932.73;;;0.59;69.45
62038;BME280;47991;42.974;12.082;2023-01-27T06:26:13;96930.48;;;0.58;69.63
62038;BME280;47991;42.974;12.082;2023-01-27T06:28:42;96935.52;;;0.58;69.58
62038;BME280;47991;42.974;12.082;2023-01-27T06:31:16;96936.05;;;0.55;69.26
62038;BME280;47991;42.974;12.082;2023-01-27T06:33:43;96939.53;;;0.54;69.62
62038;BME280;47991;42.974;12.082;2023-01-27T06:36:13;96946.15;;;0.53;69.41
62038;BME280;47991;42.974;12.082;2023-01-27T06:38:44;96947.73;;;0.53;69.71
62038;BME280;47991;42.974;12.082;2023-01-27T06:41:12;96955.55;;;0.54;69.76
62038;BME280;47991;42.974;12.082;2023-01-27T06:43:42;96953.27;;;0.57;70.27
62038;BME280;47991;42.974;12.082;2023-01-27T06:46:10;96956.40;;;0.60;69.99
62038;BME280;47991;42.974;12.082;2023-01-27T06:48:38;96956.91;;;0.66;70.71
62038;BME280;47991;42.974;12.082;2023-01-27T06:51:06;96959.85;;;0.72;70.64
62038;BME280;47991;42.974;12.082;2023-01-27T06:53:33;96961.58;;;0.78;70.13
62038;BME280;47991;42.974;12.082;2023-01-27T06:56:03;96965.04;;;0.81;70.02
62038;BME280;47991;42.974;12.082;2023-01-27T06:58:31;96967.82;;;0.81;69.75
62038;BME280;47991;42.974;12.082;2023-01-27T07:00:58;96968.86;;;0.84;69.84
62038;BME280;47991;42.974;12.082;2023-01-27T07:03:26;96969.02;;;0.92;69.69
62038;BME280;47991;42.974;12.082;2023-01-27T07:05:53;96973.45;;;1.18;69.23
62038;BME280;47991;42.974;12.082;2023-01-27T07:08:20;96967.61;;;1.69;67.96
62038;BME280;47991;42.974;12.082;2023-01-27T07:10:50;96969.11;;;2.05;67.32
62038;BME280;47991;42.974;12.082;2023-01-27T07:13:20;96967.25;;;2.19;66.84
62038;BME280;47991;42.974;12.082;2023-01-27T07:15:52;96967.41;;;2.19;66.40
62038;BME280;47991;42.974;12.082;2023-01-27T07:18:20;96972.60;;;2.27;66.14
62038;BME280;47991;42.974;12.082;2023-01-27T07:20:47;96972.73;;;2.31;67.31
62038;BME280;47991;42.974;12.082;2023-01-27T07:23:17;96975.86;;;2.32;67.20
62038;BME280;47991;42.974;12.082;2023-01-27T07:25:44;96976.56;;;2.32;66.90
62038;BME280;47991;42.974;12.082;2023-01-27T07:28:11;96971.63;;;2.38;66.60
62038;BME280;47991;42.974;12.082;2023-01-27T07:30:39;96975.42;;;2.44;66.78
62038;BME280;47991;42.974;12.082;2023-01-27T07:33:07;96972.36;;;2.55;66.52
62038;BME280;47991;42.974;12.082;2023-01-27T07:35:36;96973.47;;;2.65;66.35
62038;BME280;47991;42.974;12.082;2023-01-27T07:38:05;96972.00;;;2.73;66.37
62038;BME280;47991;42.974;12.082;2023-01-27T07:40:36;96974.92;;;2.77;65.53
62038;BME280;47991;42.974;12.082;2023-01-27T07:43:03;96976.12;;;2.80;66.11
62038;BME280;47991;42.974;12.082;2023-01-27T07:45:30;96977.36;;;2.77;65.83
62038;BME280;47991;42.974;12.082;2023-01-27T07:48:05;96980.02;;;2.74;66.03
62038;BME280;47991;42.974;12.082;2023-01-27T07:50:34;96983.04;;;2.85;66.54
62038;BME280;47991;42.974;12.082;2023-01-27T07:53:03;96977.58;;;3.05;66.10
62038;BME280;47991;42.974;12.082;2023-01-27T07:55:31;96977.31;;;3.14;65.79
62038;BME280;47991;42.974;12.082;2023-01-27T07:57:58;96980.52;;;3.23;66.02
62038;BME280;47991;42.974;12.082;2023-01-27T08:00:25;96984.95;;;3.18;64.59
62038;BME280;47991;42.974;12.082;2023-01-27T08:02:55;96986.00;;;3.17;66.04
62038;BME280;47991;42.974;12.082;2023-01-27T08:05:23;96988.64;;;3.15;64.93
62038;BME280;47991;42.974;12.082;2023-01-27T08:07:54;96989.10;;;3.21;65.81
62038;BME280;47991;42.974;12.082;2023-01-27T08:10:22;96986.15;;;3.34;65.53
62038;BME280;47991;42.974;12.082;2023-01-27T08:12:48;96994.45;;;3.42;66.55
62038;BME280;47991;42.974;12.082;2023-01-27T08:15:19;96991.34;;;3.38;65.38
62038;BME280;47991;42.974;12.082;2023-01-27T08:17:52;96987.92;;;3.32;63.90
62038;BME280;47991;42.974;12.082;2023-01-27T08:20:47;96992.77;;;3.49;64.48
62038;BME280;47991;42.974;12.082;2023-01-27T08:23:14;96991.11;;;3.69;63.36
62038;BME280;47991;42.974;12.082;2023-01-27T08:25:41;96989.58;;;3.80;63.95
62038;BME280;47991;42.974;12.082;2023-01-27T08:28:08;96994.04;;;3.85;63.59
62038;BME280;47991;42.974;12.082;2023-01-27T08:30:35;96990.18;;;3.86;63.47
62038;BME280;47991;42.974;12.082;2023-01-27T08:33:04;96990.83;;;3.90;63.03
62038;BME280;47991;42.974;12.082;2023-01-27T08:35:33;96990.80;;;4.05;62.88
62038;BME280;47991;42.974;12.082;2023-01-27T08:38:01;96996.23;;;4.04;62.19
62038;BME280;47991;42.974;12.082;2023-01-27T08:40:28;96995.11;;;4.08;62.18
62038;BME280;47991;42.974;12.082;2023-01-27T08:42:55;96997.06;;;4.17;61.81
62038;BME280;47991;42.974;12.082;2023-01-27T08:45:22;96992.71;;;4.37;62.21
62038;BME280;47991;42.974;12.082;2023-01-27T08:47:49;96994.66;;;4.68;61.95
62038;BME280;47991;42.974;12.082;2023-01-27T08:50:20;96994.76;;;4.73;60.67
62038;BME280;47991;42.974;12.082;2023-01-27T08:52:47;96998.96;;;4.73;60.17
62038;BME280;47991;42.974;12.082;2023-01-27T08:55:14;97004.55;;;4.83;59.89
62038;BME280;47991;42.974;12.082;2023-01-27T08:57:42;97008.27;;;4.71;58.71
62038;BME280;47991;42.974;12.082;2023-01-27T09:00:10;97009.41;;;4.86;59.52
62038;BME280;47991;42.974;12.082;2023-01-27T09:02:41;97012.71;;;4.97;59.61
62038;BME280;47991;42.974;12.082;2023-01-27T09:05:09;97009.05;;;4.96;58.02
62038;BME280;47991;42.974;12.082;2023-01-27T09:07:36;97014.34;;;4.94;57.67
62038;BME280;47991;42.974;12.082;2023-01-27T09:10:04;97011.52;;;4.95;57.38
62038;BME280;47991;42.974;12.082;2023-01-27T09:12:31;97010.20;;;5.87;56.51
62038;BME280;47991;42.974;12.082;2023-01-27T09:14:58;97006.35;;;6.71;52.75
62038;BME280;47991;42.974;12.082;2023-01-27T09:17:29;97006.80;;;7.14;53.88
62038;BME280;47991;42.974;12.082;2023-01-27T09:19:56;97005.21;;;7.64;51.14
62038;BME280;47991;42.974;12.082;2023-01-27T09:22:32;97001.11;;;8.25;50.79
62038;BME280;47991;42.974;12.082;2023-01-27T09:25:06;97002.39;;;7.77;50.47
62038;BME280;47991;42.974;12.082;2023-01-27T09:27:34;97013.64;;;7.08;51.85
62038;BME280;47991;42.974;12.082;2023-01-27T09:30:04;97015.75;;;6.95;52.18
62038;BME280;47991;42.974;12.082;2023-01-27T09:32:35;97017.27;;;6.77;52.49
62038;BME280;47991;42.974;12.082;2023-01-27T09:35:02;97017.54;;;6.58;52.94
62038;BME280;47991;42.974;12.082;2023-01-27T09:37:38;97020.09;;;6.84;53.21
62038;BME280;47991;42.974;12.082;2023-01-27T09:53:58;97024.34;;;7.28;50.71
62038;BME280;47991;42.974;12.082;2023-01-27T10:02:02;97027.39;;;7.46;50.49
62038;BME280;47991;42.974;12.082;2023-01-27T10:19:41;97038.54;;;5.48;54.85
62038;BME280;47991;42.974;12.082;2023-01-27T10:22:19;97034.80;;;5.34;55.34
62038;BME280;47991;42.974;12.082;2023-01-27T10:27:54;97023.69;;;5.95;54.30
62038;BME280;47991;42.974;12.082;2023-01-27T10:33:21;97005.77;;;8.44;49.55
62038;BME280;47991;42.974;12.082;2023-01-27T10:36:25;96992.84;;;9.89;44.77
62038;BME280;47991;42.974;12.082;2023-01-27T10:44:50;96986.35;;;10.72;42.51
62038;BME280;47991;42.974;12.082;2023-01-27T10:49:56;96982.93;;;8.76;48.10
62038;BME280;47991;42.974;12.082;2023-01-27T10:52:39;96991.63;;;8.13;49.15
62038;BME280;47991;42.974;12.082;2023-01-27T10:55:16;96989.72;;;8.41;49.27
62038;BME280;47991;42.974;12.082;2023-01-27T10:57:56;96990.91;;;8.25;49.96
62038;BME280;47991;42.974;12.082;2023-01-27T11:00:42;96993.11;;;8.34;49.53
62038;BME280;47991;42.974;12.082;2023-01-27T11:03:21;96993.96;;;8.01;50.17
62038;BME280;47991;42.974;12.082;2023-01-27T11:05:54;96988.67;;;7.95;50.10
62038;BME280;47991;42.974;12.082;2023-01-27T11:08:33;96986.48;;;7.97;50.47
62038;BME280;47991;42.974;12.082;2023-01-27T11:11:08;96982.86;;;8.23;50.27
62038;BME280;47991;42.974;12.082;2023-01-27T11:14:02;96984.52;;;7.98;50.20
62038;BME280;47991;42.974;12.082;2023-01-27T11:16:36;96978.80;;;8.13;50.48
62038;BME280;47991;42.974;12.082;2023-01-27T11:19:30;96979.94;;;8.38;49.40
62038;BME280;47991;42.974;12.082;2023-01-27T11:22:01;96981.13;;;8.06;49.74
62038;BME280;47991;42.974;12.082;2023-01-27T11:24:46;96984.33;;;7.45;50.61
62038;BME280;47991;42.974;12.082;2023-01-27T11:27:21;96985.16;;;7.22;51.61
62038;BME280;47991;42.974;12.082;2023-01-27T11:30:00;96984.94;;;7.03;51.70
62038;BME280;47991;42.974;12.082;2023-01-27T11:33:05;96986.80;;;6.59;52.27
62038;BME280;47991;42.974;12.082;2023-01-27T11:35:23;96983.64;;;6.58;53.34
62038;BME280;47991;42.974;12.082;2023-01-27T11:37:51;96982.98;;;6.57;53.97
62038;BME280;47991;42.974;12.082;2023-01-27T11:40:45;96984.60;;;6.48;52.93
62038;BME280;47991;42.974;12.082;2023-01-27T11:43:17;96975.31;;;6.18;53.27
62038;BME280;47991;42.974;12.082;2023-01-27T11:45:53;96976.33;;;5.97;53.35
62038;BME280;47991;42.974;12.082;2023-01-27T11:48:21;96971.81;;;5.95;54.08
62038;BME280;47991;42.974;12.082;2023-01-27T11:50:48;96974.46;;;5.86;54.12
62038;BME280;47991;42.974;12.082;2023-01-27T11:55:46;96971.12;;;5.86;55.04
62038;BME280;47991;42.974;12.082;2023-01-27T12:01:03;96969.11;;;5.98;54.29
62038;BME280;47991;42.974;12.082;2023-01-27T12:06:05;96967.02;;;5.73;55.04
62038;BME280;47991;42.974;12.082;2023-01-27T12:08:45;96965.11;;;5.64;55.23
62038;BME280;47991;42.974;12.082;2023-01-27T12:11:17;96965.40;;;5.59;56.21
62038;BME280;47991;42.974;12.082;2023-01-27T12:13:53;96961.51;;;5.52;56.14
62038;BME280;47991;42.974;12.082;2023-01-27T12:16:32;96955.97;;;5.65;55.60
62038;BME280;47991;42.974;12.082;2023-01-27T12:19:25;96959.36;;;5.70;55.95
62038;BME280;47991;42.974;12.082;2023-01-27T12:22:05;96955.98;;;5.56;55.98
62038;BME280;47991;42.974;12.082;2023-01-27T12:24:35;96955.40;;;5.51;56.48
62038;BME280;47991;42.974;12.082;2023-01-27T12:27:04;96954.16;;;5.43;56.68
62038;BME280;47991;42.974;12.082;2023-01-27T12:29:52;96949.73;;;5.46;56.94
62038;BME280;47991;42.974;12.082;2023-01-27T12:32:34;96946.25;;;5.68;56.55
62038;BME280;47991;42.974;12.082;2023-01-27T12:35:05;96948.58;;;5.58;56.50
62038;BME280;47991;42.974;12.082;2023-01-27T12:37:36;96946.85;;;5.64;56.57
62038;BME280;47991;42.974;12.082;2023-01-27T12:40:06;96942.50;;;5.64;56.38
62038;BME280;47991;42.974;12.082;2023-01-27T12:42:48;96942.84;;;5.64;56.35
62038;BME280;47991;42.974;12.082;2023-01-27T12:45:28;96942.96;;;5.50;55.95
62038;BME280;47991;42.974;12.082;2023-01-27T12:50:53;96939.80;;;5.50;55.77
62038;BME280;47991;42.974;12.082;2023-01-27T12:53:25;96935.70;;;5.85;54.93
62038;BME280;47991;42.974;12.082;2023-01-27T13:09:49;96924.18;;;6.35;53.44
62038;BME280;47991;42.974;12.082;2023-01-27T13:12:29;96923.20;;;6.54;52.99
62038;BME280;47991;42.974;12.082;2023-01-27T13:15:04;96914.45;;;6.72;52.27
62038;BME280;47991;42.974;12.082;2023-01-27T13:17:40;96909.95;;;7.01;51.73
62038;BME280;47991;42.974;12.082;2023-01-27T13:23:20;96911.92;;;7.31;51.68
62038;BME280;47991;42.974;12.082;2023-01-27T13:26:03;96908.13;;;6.97;51.55
62038;BME280;47991;42.974;12.082;2023-01-27T13:31:19;96915.35;;;6.65;52.42
62038;BME280;47991;42.974;12.082;2023-01-27T13:33:50;96916.98;;;6.56;52.41
62038;BME280;47991;42.974;12.082;2023-01-27T13:36:42;96919.17;;;6.46;52.71
62038;BME280;47991;42.974;12.082;2023-01-27T13:45:16;96918.21;;;6.21;52.51
62038;BME280;47991;42.974;12.082;2023-01-27T13:52:56;96917.55;;;6.67;53.61
62038;BME280;47991;42.974;12.082;2023-01-27T14:01:38;96924.36;;;6.28;53.84
62038;BME280;47991;42.974;12.082;2023-01-27T14:07:25;96925.92;;;5.92;54.36
62038;BME280;47991;42.974;12.082;2023-01-27T14:18:38;96938.98;;;5.88;55.37
62038;BME280;47991;42.974;12.082;2023-01-27T14:21:12;96943.64;;;6.15;54.29
62038;BME280;47991;42.974;12.082;2023-01-27T14:32:20;96955.08;;;5.73;54.14
62038;BME280;47991;42.974;12.082;2023-01-27T14:35:08;96952.44;;;5.41;54.64
62038;BME280;47991;42.974;12.082;2023-01-27T14:38:05;96953.95;;;5.53;55.13
62038;BME280;47991;42.974;12.082;2023-01-27T14:51:15;96974.04;;;5.31;55.70
62038;BME280;47991;42.974;12.082;2023-01-27T14:54:30;96974.38;;;5.22;56.20
62038;BME280;47991;42.974;12.082;2023-01-27T15:03:33;96981.11;;;4.92;57.41
62038;BME280;47991;42.974;12.082;2023-01-27T15:06:34;96983.86;;;4.84;57.95
62038;BME280;47991;42.974;12.082;2023-01-27T15:12:34;96985.39;;;4.68;58.17
62038;BME280;47991;42.974;12.082;2023-01-27T15:18:39;96987.92;;;4.63;57.59
62038;BME280;47991;42.974;12.082;2023-01-27T15:21:21;96983.84;;;4.56;57.90
62038;BME280;47991;42.974;12.082;2023-01-27T15:26:45;96988.94;;;4.44;58.41
62038;BME280;47991;42.974;12.082;2023-01-27T15:29:22;96990.48;;;4.36;58.74
62038;BME280;47991;42.974;12.082;2023-01-27T15:32:10;96989.95;;;4.36;58.79
62038;BME280;47991;42.974;12.082;2023-01-27T15:34:38;96989.67;;;4.31;58.71
62038;BME280;47991;42.974;12.082;2023-01-27T15:40:11;97000.73;;;4.29;59.02
62038;BME280;47991;42.974;12.082;2023-01-27T15:45:30;97006.98;;;4.21;59.25
62038;BME280;47991;42.974;12.082;2023-01-27T15:48:00;97007.95;;;4.15;59.20
62038;BME280;47991;42.974;12.082;2023-01-27T15:50:32;97012.56;;;4.10;58.97
62038;BME280;47991;42.974;12.082;2023-01-27T15:53:30;97015.27;;;4.04;59.30
62038;BME280;47991;42.974;12.082;2023-01-27T15:55:58;97014.06;;;3.91;60.33
62038;BME280;47991;42.974;12.082;2023-01-27T15:58:35;97014.02;;;3.82;60.32
62038;BME280;47991;42.974;12.082;2023-01-27T16:03:51;97020.85;;;3.67;60.53
62038;BME280;47991;42.974;12.082;2023-01-27T16:06:30;97024.27;;;3.60;60.94
62038;BME280;47991;42.974;12.082;2023-01-27T16:09:00;97027.48;;;3.54;61.17
62038;BME280;47991;42.974;12.082;2023-01-27T16:19:30;97040.52;;;3.32;62.07